createdAt,value
2023-09-15T00:00:21.277Z,49.30
2023-09-15T00:02:56.516Z,48.79
2023-09-15T00:05:29.594Z,49.03
2023-09-15T00:07:59.328Z,48.90
2023-09-15T00:10:34.998Z,48.68
2023-09-15T00:13:10.985Z,48.79
2023-09-15T00:15:43.586Z,48.77
2023-09-15T00:18:11.970Z,48.77
2023-09-15T00:20:42.643Z,48.85
2023-09-15T00:23:10.965Z,48.85
2023-09-15T00:25:41.823Z,48.95
2023-09-15T00:28:14.901Z,48.95
2023-09-15T00:30:44.634Z,48.70
2023-09-15T00:33:13.161Z,48.79
2023-09-15T00:35:41.459Z,48.84
2023-09-15T00:38:10.543Z,48.73
2023-09-15T00:40:38.945Z,48.82
2023-09-15T00:43:07.435Z,48.77
2023-09-15T00:45:39.497Z,48.96
2023-09-15T00:48:13.454Z,49.04
2023-09-15T00:50:44.908Z,49.21
2023-09-15T00:53:17.527Z,48.96
2023-09-15T00:55:46.193Z,48.97
2023-09-15T00:58:14.660Z,48.98
2023-09-15T01:00:43.932Z,48.99
2023-09-15T01:03:15.945Z,48.76
2023-09-15T01:05:46.531Z,48.96
2023-09-15T01:08:14.951Z,49.08
2023-09-15T01:10:43.276Z,48.87
2023-09-15T01:13:12.090Z,48.91
2023-09-15T01:15:48.574Z,48.74
2023-09-15T01:18:28.173Z,48.35
2023-09-15T01:22:02.678Z,48.90
2023-09-15T01:25:28.210Z,48.88
2023-09-15T01:28:48.384Z,48.70
2023-09-15T01:31:19.761Z,48.80
2023-09-15T01:33:51.351Z,48.89
2023-09-15T01:36:28.662Z,48.58
2023-09-15T01:38:59.096Z,48.72
2023-09-15T01:41:27.429Z,48.65
2023-09-15T01:43:58.557Z,48.51
2023-09-15T01:46:34.553Z,48.76
2023-09-15T01:49:06.526Z,48.80
2023-09-15T01:51:38.233Z,48.58
2023-09-15T01:54:07.068Z,48.58
2023-09-15T01:56:38.395Z,48.85
2023-09-15T01:59:09.484Z,48.81
2023-09-15T02:01:39.176Z,48.73
2023-09-15T02:04:12.460Z,48.70
2023-09-15T02:06:40.772Z,48.68
2023-09-15T02:09:11.360Z,48.48
2023-09-15T02:11:39.636Z,48.69
2023-09-15T02:14:11.029Z,48.90
2023-09-15T02:16:46.716Z,48.88
2023-09-15T02:19:15.132Z,49.12
2023-09-15T02:21:43.489Z,48.88
2023-09-15T02:24:14.781Z,48.78
2023-09-15T02:26:47.110Z,48.91
2023-09-15T02:29:17.274Z,48.67
2023-09-15T02:31:46.952Z,48.63
2023-09-15T02:34:15.325Z,48.79
2023-09-15T02:36:45.067Z,48.84
2023-09-15T02:39:13.430Z,48.79
2023-09-15T02:41:41.714Z,48.80
2023-09-15T02:44:10.864Z,48.97
2023-09-15T02:46:39.460Z,49.03
2023-09-15T02:49:09.506Z,48.77
2023-09-15T02:51:38.435Z,48.74
2023-09-15T02:54:07.523Z,48.58
2023-09-15T02:56:35.888Z,48.71
2023-09-15T02:59:12.231Z,48.70
2023-09-15T03:01:40.661Z,48.57
2023-09-15T03:04:13.321Z,48.70
2023-09-15T03:06:42.385Z,48.80
2023-09-15T03:09:13.546Z,49.32
2023-09-15T03:11:41.852Z,48.93
2023-09-15T03:14:13.899Z,48.95
2023-09-15T03:16:44.560Z,48.52
2023-09-15T03:19:14.474Z,48.90
2023-09-15T03:21:49.018Z,48.53
2023-09-15T03:24:17.568Z,48.94
2023-09-15T03:26:46.231Z,48.85
2023-09-15T03:29:14.614Z,48.80
2023-09-15T03:31:43.035Z,48.82
2023-09-15T03:34:13.904Z,48.83
2023-09-15T03:36:51.743Z,48.90
2023-09-15T03:39:34.847Z,48.85
2023-09-15T03:42:09.507Z,48.49
2023-09-15T03:44:40.655Z,48.51
2023-09-15T03:47:10.938Z,49.00
2023-09-15T03:49:45.374Z,48.77
2023-09-15T03:52:15.190Z,49.07
2023-09-15T03:54:46.360Z,49.16
2023-09-15T03:57:14.971Z,48.82
2023-09-15T03:59:43.286Z,48.79
2023-09-15T04:02:14.729Z,48.92
2023-09-15T04:04:45.968Z,48.77
2023-09-15T04:07:15.719Z,49.13
2023-09-15T04:09:44.004Z,49.21
2023-09-15T04:12:12.330Z,49.15
2023-09-15T04:14:40.605Z,48.76
2023-09-15T04:17:13.259Z,49.03
2023-09-15T04:19:41.641Z,49.43
2023-09-15T04:22:09.945Z,49.00
2023-09-15T04:24:39.601Z,49.12
2023-09-15T04:27:07.953Z,48.94
2023-09-15T04:29:54.226Z,48.91
2023-09-15T04:32:25.172Z,49.06
2023-09-15T04:34:53.958Z,48.60
2023-09-15T04:37:23.153Z,48.68
2023-09-15T04:39:55.100Z,48.88
2023-09-15T04:42:32.205Z,48.82
2023-09-15T04:45:08.126Z,49.13
2023-09-15T04:47:43.170Z,48.96
2023-09-15T04:50:14.047Z,49.28
2023-09-15T04:52:45.175Z,48.90
2023-09-15T04:55:14.859Z,49.24
2023-09-15T04:57:43.171Z,48.69
2023-09-15T05:00:14.515Z,48.86
2023-09-15T05:02:50.403Z,49.00
2023-09-15T05:05:19.144Z,48.89
2023-09-15T05:07:50.613Z,48.99
2023-09-15T05:10:26.748Z,49.13
2023-09-15T05:13:02.112Z,48.98
2023-09-15T05:15:33.558Z,48.58
2023-09-15T05:18:01.979Z,48.42
2023-09-15T05:20:30.325Z,48.79
2023-09-15T05:25:50.465Z,48.91
2023-09-15T05:28:21.535Z,49.16
2023-09-15T05:31:01.296Z,49.02
2023-09-15T05:33:29.738Z,49.04
2023-09-15T05:36:00.470Z,48.54
2023-09-15T05:38:29.455Z,49.00
2023-09-15T05:40:59.126Z,48.33
2023-09-15T05:43:30.467Z,46.73
2023-09-15T05:46:02.065Z,45.15
2023-09-15T05:48:42.685Z,44.27
2023-09-15T05:51:14.250Z,43.58
2023-09-15T05:53:42.729Z,43.16
2023-09-15T05:56:12.440Z,42.71
2023-09-15T05:58:43.743Z,42.57
2023-09-15T06:01:12.101Z,42.05
2023-09-15T06:03:43.825Z,41.73
2023-09-15T06:06:12.168Z,41.61
2023-09-15T06:08:40.441Z,40.87
2023-09-15T06:11:13.511Z,40.77
2023-09-15T06:13:42.615Z,40.29
2023-09-15T06:16:14.586Z,40.09
2023-09-15T06:18:42.962Z,39.70
2023-09-15T06:21:11.250Z,39.99
2023-09-15T06:23:42.558Z,39.80
2023-09-15T06:26:15.309Z,39.53
2023-09-15T06:28:43.629Z,39.00
2023-09-15T06:31:12.061Z,39.49
2023-09-15T06:33:43.601Z,38.82
2023-09-15T06:36:11.929Z,40.55
2023-09-15T06:38:40.706Z,39.29
2023-09-15T06:41:11.825Z,45.10
2023-09-15T06:43:47.279Z,43.60
2023-09-15T06:46:22.442Z,44.24
2023-09-15T06:51:38.915Z,43.96
2023-09-15T06:54:13.757Z,43.47
2023-09-15T06:56:44.856Z,47.47
2023-09-15T06:59:14.510Z,52.33
2023-09-15T07:01:48.674Z,48.04
2023-09-15T07:04:20.478Z,48.14
2023-09-15T07:06:51.625Z,49.91
2023-09-15T07:09:23.308Z,49.88
2023-09-15T07:11:57.553Z,48.01
2023-09-15T07:14:27.275Z,46.38
2023-09-15T07:16:55.971Z,48.84
2023-09-15T07:19:27.451Z,48.94
2023-09-15T07:21:55.830Z,47.85
2023-09-15T07:24:24.174Z,47.47
2023-09-15T07:27:06.557Z,48.23
2023-09-15T07:29:42.473Z,47.43
2023-09-15T07:32:10.808Z,47.60
2023-09-15T07:34:42.021Z,47.38
2023-09-15T07:37:13.890Z,43.59
2023-09-15T07:39:51.648Z,45.58
2023-09-15T07:42:25.802Z,48.21
2023-09-15T07:44:58.460Z,47.53
2023-09-15T07:47:29.859Z,44.45
2023-09-15T07:50:04.547Z,45.17
2023-09-15T07:52:39.047Z,45.07
2023-09-15T07:55:08.614Z,43.98
2023-09-15T07:57:38.564Z,45.27
2023-09-15T08:00:12.478Z,44.81
2023-09-15T08:02:47.244Z,46.77
2023-09-15T08:05:15.924Z,43.25
2023-09-15T08:07:50.689Z,44.59
2023-09-15T08:10:23.523Z,45.19
2023-09-15T08:12:55.225Z,45.13
2023-09-15T08:15:32.389Z,42.58
2023-09-15T08:18:02.681Z,43.84
2023-09-15T08:20:31.176Z,44.40
2023-09-15T08:23:00.046Z,46.06
2023-09-15T08:25:28.804Z,45.64
2023-09-15T08:27:57.194Z,43.65
2023-09-15T08:30:27.019Z,43.66
2023-09-15T08:32:58.481Z,44.56
2023-09-15T08:35:27.225Z,45.72
2023-09-15T08:38:01.333Z,45.08
2023-09-15T08:40:50.848Z,43.61
2023-09-15T08:43:23.295Z,44.07
2023-09-15T08:45:55.144Z,44.33
2023-09-15T08:48:40.894Z,43.06
2023-09-15T08:51:10.101Z,42.50
2023-09-15T08:53:39.065Z,41.80
2023-09-15T08:56:08.065Z,41.56
2023-09-15T08:58:37.073Z,43.54
2023-09-15T09:01:17.242Z,43.90
2023-09-15T09:03:45.926Z,41.21
2023-09-15T09:06:15.595Z,40.37
2023-09-15T09:08:47.317Z,41.21
2023-09-15T09:11:15.961Z,42.63
2023-09-15T09:13:53.854Z,42.70
2023-09-15T09:16:24.758Z,43.86
2023-09-15T09:19:05.271Z,43.06
2023-09-15T09:21:35.541Z,43.52
2023-09-15T09:24:11.627Z,43.48
2023-09-15T09:26:40.558Z,42.00
2023-09-15T09:29:11.772Z,41.74
2023-09-15T09:31:41.852Z,40.26
2023-09-15T09:34:34.894Z,39.75
2023-09-15T09:37:08.719Z,42.62
2023-09-15T09:39:37.653Z,41.92
2023-09-15T09:42:13.261Z,40.74
2023-09-15T09:44:41.635Z,42.27
2023-09-15T09:47:12.337Z,40.94
2023-09-15T09:49:42.710Z,39.36
2023-09-15T09:52:14.479Z,43.43
2023-09-15T09:54:45.925Z,41.34
2023-09-15T09:57:16.795Z,41.22
2023-09-15T09:59:46.329Z,38.63
2023-09-15T10:02:16.093Z,40.75
2023-09-15T10:04:44.384Z,40.36
2023-09-15T10:07:14.132Z,40.93
2023-09-15T10:09:51.242Z,42.44
2023-09-15T10:12:23.154Z,40.93
2023-09-15T10:14:54.659Z,42.31
2023-09-15T10:17:25.372Z,40.25
2023-09-15T10:20:03.671Z,41.60
2023-09-15T10:22:35.917Z,42.32
2023-09-15T10:25:19.199Z,39.45
2023-09-15T10:27:50.846Z,39.61
2023-09-15T10:30:19.346Z,37.33
2023-09-15T10:32:54.687Z,38.92
2023-09-15T10:35:24.802Z,41.61
2023-09-15T10:38:00.106Z,40.20
2023-09-15T10:40:28.591Z,39.29
2023-09-15T10:43:10.045Z,38.25
2023-09-15T10:45:40.052Z,40.28
2023-09-15T10:48:13.051Z,38.18
2023-09-15T10:50:41.738Z,41.08
2023-09-15T10:53:10.970Z,40.04
2023-09-15T10:55:39.906Z,40.70
2023-09-15T10:58:08.461Z,41.30
2023-09-15T11:00:37.344Z,39.81
2023-09-15T11:03:08.312Z,40.33
2023-09-15T11:05:41.157Z,41.65
2023-09-15T11:08:10.087Z,39.23
2023-09-15T11:10:41.936Z,41.14
2023-09-15T11:13:13.625Z,40.43
2023-09-15T11:15:41.947Z,40.79
2023-09-15T11:18:13.710Z,37.80
2023-09-15T11:20:43.575Z,39.59
2023-09-15T11:23:11.953Z,39.64
2023-09-15T11:25:40.652Z,43.17
2023-09-15T11:28:15.785Z,39.62
2023-09-15T11:30:44.914Z,39.80
2023-09-15T11:33:21.359Z,40.06
2023-09-15T11:35:51.716Z,39.73
2023-09-15T11:38:23.005Z,38.18
2023-09-15T11:40:57.206Z,41.13
2023-09-15T11:43:26.017Z,40.22
2023-09-15T11:46:01.359Z,43.15
2023-09-15T11:48:31.238Z,37.94
2023-09-15T11:51:05.406Z,40.70
2023-09-15T11:53:39.248Z,41.83
2023-09-15T11:56:11.135Z,37.47
2023-09-15T11:58:39.647Z,39.73
2023-09-15T12:01:08.095Z,39.23
2023-09-15T12:03:39.544Z,38.40
2023-09-15T12:06:18.164Z,40.07
2023-09-15T12:08:52.131Z,38.72
2023-09-15T12:11:21.508Z,42.54
2023-09-15T12:13:55.193Z,40.06
2023-09-15T12:16:28.568Z,39.46
2023-09-15T12:18:58.570Z,38.33
2023-09-15T12:21:29.680Z,37.56
2023-09-15T12:24:12.902Z,42.17
2023-09-15T12:26:43.979Z,37.80
2023-09-15T12:29:12.444Z,38.33
2023-09-15T12:31:43.479Z,36.71
2023-09-15T12:34:21.511Z,37.73
2023-09-15T12:36:54.718Z,38.35
2023-09-15T12:39:26.645Z,41.78
2023-09-15T12:42:14.468Z,37.45
2023-09-15T12:44:45.807Z,38.35
2023-09-15T12:47:15.271Z,38.50
2023-09-15T12:49:49.911Z,40.88
2023-09-15T12:52:25.983Z,38.89
2023-09-15T12:54:54.499Z,37.11
2023-09-15T12:57:23.916Z,38.20
2023-09-15T12:59:55.082Z,38.99
2023-09-15T13:02:25.703Z,39.59
2023-09-15T13:04:57.051Z,40.24
2023-09-15T13:07:26.976Z,38.59
2023-09-15T13:09:55.444Z,36.67
2023-09-15T13:12:23.728Z,38.75
2023-09-15T13:14:52.056Z,39.61
2023-09-15T13:17:20.301Z,36.95
2023-09-15T13:19:48.610Z,40.98
2023-09-15T13:22:17.801Z,39.36
2023-09-15T13:24:50.376Z,39.17
2023-09-15T13:27:21.787Z,36.12
2023-09-15T13:29:58.530Z,38.96
2023-09-15T13:32:27.887Z,39.29
2023-09-15T13:35:12.874Z,37.32
2023-09-15T13:37:42.383Z,35.13
2023-09-15T13:40:12.716Z,38.18
2023-09-15T13:42:43.863Z,38.10
2023-09-15T13:45:14.903Z,38.52
2023-09-15T13:47:47.165Z,37.23
2023-09-15T13:50:15.487Z,41.45
2023-09-15T13:52:51.357Z,38.85
2023-09-15T13:55:21.645Z,35.52
2023-09-15T13:57:50.924Z,36.08
2023-09-15T14:00:20.060Z,39.90
2023-09-15T14:02:57.879Z,36.63
2023-09-15T14:05:26.378Z,38.06
2023-09-15T14:07:54.651Z,36.93
2023-09-15T14:10:24.305Z,38.94
2023-09-15T14:12:52.558Z,38.85
2023-09-15T14:15:21.006Z,38.22
2023-09-15T14:18:01.141Z,36.38
2023-09-15T14:20:32.271Z,37.72
2023-09-15T14:23:03.616Z,36.93
2023-09-15T14:25:36.371Z,38.92
2023-09-15T14:28:05.094Z,41.32
2023-09-15T14:30:42.596Z,36.98
2023-09-15T14:33:13.706Z,37.05
2023-09-15T14:35:42.013Z,35.33
2023-09-15T14:38:18.217Z,37.03
2023-09-15T14:41:31.063Z,39.87
2023-09-15T14:44:00.742Z,36.76
2023-09-15T14:46:38.167Z,36.14
2023-09-15T14:49:15.592Z,40.09
2023-09-15T14:51:50.171Z,41.62
2023-09-15T14:54:19.203Z,36.80
2023-09-15T14:56:54.005Z,42.06
2023-09-15T14:59:26.085Z,40.46
2023-09-15T15:01:57.310Z,36.61
2023-09-15T15:04:28.384Z,42.02
2023-09-15T15:07:03.043Z,36.96
2023-09-15T15:09:31.357Z,36.72
2023-09-15T15:11:59.668Z,38.48
2023-09-15T15:14:29.305Z,38.09
2023-09-15T15:16:59.379Z,36.69
2023-09-15T15:19:27.649Z,36.97
2023-09-15T15:21:59.331Z,35.77
2023-09-15T15:24:34.858Z,42.55
2023-09-15T15:27:04.649Z,37.83
2023-09-15T15:29:39.490Z,42.10
2023-09-15T15:32:08.219Z,38.05
2023-09-15T15:34:42.868Z,38.27
2023-09-15T15:37:11.519Z,39.49
2023-09-15T15:39:43.013Z,40.80
2023-09-15T15:42:15.960Z,36.67
2023-09-15T15:44:45.854Z,39.01
2023-09-15T15:47:14.152Z,40.44
2023-09-15T15:49:45.249Z,38.15
2023-09-15T15:52:13.521Z,40.84
2023-09-15T15:54:44.588Z,38.62
2023-09-15T15:57:12.879Z,41.34
2023-09-15T15:59:43.393Z,37.40
2023-09-15T16:02:19.369Z,38.81
2023-09-15T16:04:48.633Z,38.83
2023-09-15T16:07:25.718Z,38.37
2023-09-15T16:09:59.383Z,37.43
2023-09-15T16:12:33.591Z,38.10
2023-09-15T16:15:02.172Z,38.85
2023-09-15T16:17:41.857Z,40.39
2023-09-15T16:20:13.973Z,42.99
2023-09-15T16:22:44.347Z,42.98
2023-09-15T16:25:12.611Z,37.85
2023-09-15T16:27:41.230Z,41.03
2023-09-15T16:30:13.054Z,41.73
2023-09-15T16:32:43.022Z,38.38
2023-09-15T16:35:13.560Z,40.66
2023-09-15T16:37:44.652Z,38.39
2023-09-15T16:40:14.921Z,42.11
2023-09-15T16:42:51.392Z,41.05
2023-09-15T16:45:19.901Z,41.39
2023-09-15T16:47:53.390Z,42.69
2023-09-15T16:50:33.174Z,39.40
2023-09-15T16:53:04.718Z,42.41
2023-09-15T16:55:38.603Z,41.96
2023-09-15T16:58:11.915Z,42.05
2023-09-15T17:00:43.629Z,42.56
2023-09-15T17:03:16.152Z,43.01
2023-09-15T17:05:44.509Z,43.18
2023-09-15T17:08:15.622Z,42.97
2023-09-15T17:10:46.796Z,42.55
2023-09-15T17:13:18.192Z,43.10
2023-09-15T17:15:49.392Z,44.16
2023-09-15T17:18:21.554Z,42.42
2023-09-15T17:20:49.866Z,44.11
2023-09-15T17:23:20.968Z,45.31
2023-09-15T17:26:04.643Z,45.76
2023-09-15T17:28:32.976Z,46.34
2023-09-15T17:31:04.345Z,46.48
2023-09-15T17:33:43.381Z,46.93
2023-09-15T17:36:15.321Z,47.94
2023-09-15T17:38:46.816Z,48.29
2023-09-15T17:41:18.057Z,48.94
2023-09-15T17:43:46.658Z,48.64
2023-09-15T17:46:15.096Z,49.57
2023-09-15T17:48:48.999Z,49.09
2023-09-15T17:51:17.617Z,50.06
2023-09-15T17:53:46.321Z,49.68
2023-09-15T17:56:14.713Z,49.28
2023-09-15T17:58:42.982Z,49.52
2023-09-15T18:01:14.015Z,49.66
2023-09-15T18:03:49.807Z,49.74
2023-09-15T18:06:19.639Z,49.93
2023-09-15T18:08:59.079Z,49.54
2023-09-15T18:11:35.893Z,49.55
2023-09-15T18:14:09.522Z,49.62
2023-09-15T18:16:40.922Z,50.33
2023-09-15T18:19:15.053Z,51.31
2023-09-15T18:21:45.765Z,51.71
2023-09-15T18:24:17.222Z,51.69
2023-09-15T18:26:45.771Z,52.03
2023-09-15T18:29:14.037Z,51.99
2023-09-15T18:31:45.648Z,52.26
2023-09-15T18:34:15.402Z,51.92
2023-09-15T18:36:44.147Z,51.26
2023-09-15T18:39:12.448Z,51.32
2023-09-15T18:41:42.948Z,51.29
2023-09-15T18:44:11.356Z,51.68
2023-09-15T18:46:39.800Z,50.99
2023-09-15T18:49:10.113Z,51.71
2023-09-15T18:51:45.283Z,51.30
2023-09-15T18:54:16.712Z,50.98
2023-09-15T18:56:48.329Z,50.76
2023-09-15T19:01:46.968Z,50.15
2023-09-15T19:04:15.358Z,50.26
2023-09-15T19:06:45.314Z,50.20
2023-09-15T19:09:16.650Z,51.57
2023-09-15T19:11:44.973Z,50.62
2023-09-15T19:14:13.251Z,50.67
2023-09-15T19:16:48.695Z,50.29
2023-09-15T19:19:20.338Z,49.82
2023-09-15T19:21:50.066Z,49.93
2023-09-15T19:24:18.525Z,49.99
2023-09-15T19:26:49.361Z,49.73
2023-09-15T19:29:24.806Z,49.42
2023-09-15T19:31:55.915Z,50.03
2023-09-15T19:34:24.415Z,49.67
2023-09-15T19:36:54.469Z,49.54
2023-09-15T19:39:22.786Z,49.93
2023-09-15T19:41:57.125Z,49.98
2023-09-15T19:44:27.648Z,49.64
2023-09-15T19:46:58.769Z,49.48
2023-09-15T19:49:30.015Z,49.80
2023-09-15T19:52:02.698Z,49.77
2023-09-15T19:54:37.172Z,49.90
2023-09-15T19:57:08.244Z,49.61
2023-09-15T19:59:39.252Z,49.85
2023-09-15T20:02:12.813Z,50.19
2023-09-15T20:04:41.308Z,50.06
2023-09-15T20:07:11.047Z,50.16
2023-09-15T20:09:39.350Z,49.73
2023-09-15T20:12:10.801Z,49.96
2023-09-15T20:14:40.700Z,49.73
2023-09-15T20:17:14.580Z,49.85
2023-09-15T20:19:43.521Z,49.63
2023-09-15T20:22:13.874Z,49.97
2023-09-15T20:24:42.386Z,49.85
2023-09-15T20:27:10.718Z,49.85
2023-09-15T20:29:38.980Z,49.76
2023-09-15T20:32:13.560Z,49.62
2023-09-15T20:34:42.393Z,49.69
2023-09-15T20:37:14.327Z,49.80
2023-09-15T20:39:42.719Z,49.88
2023-09-15T20:42:14.284Z,50.02
2023-09-15T20:44:45.917Z,50.43
2023-09-15T20:47:14.599Z,50.00
2023-09-15T20:49:43.152Z,50.29
2023-09-15T20:52:12.808Z,50.32
2023-09-15T20:54:44.066Z,50.37
2023-09-15T20:57:12.450Z,50.47
2023-09-15T20:59:41.001Z,50.34
2023-09-15T21:02:09.316Z,50.58
2023-09-15T21:04:37.617Z,50.00
2023-09-15T21:07:16.332Z,50.19
2023-09-15T21:09:54.291Z,50.24
2023-09-15T21:12:22.633Z,50.54
2023-09-15T21:14:51.682Z,50.75
2023-09-15T21:17:27.598Z,50.42
2023-09-15T21:19:58.290Z,50.56
2023-09-15T21:22:27.186Z,50.42
2023-09-15T21:24:56.878Z,50.49
2023-09-15T21:27:25.256Z,50.15
2023-09-15T21:29:56.052Z,50.53
2023-09-15T21:32:25.561Z,50.50
2023-09-15T21:34:53.855Z,50.60
2023-09-15T21:37:24.333Z,50.42
2023-09-15T21:39:52.966Z,50.34
2023-09-15T21:42:23.084Z,50.09
2023-09-15T21:44:59.697Z,50.18
2023-09-15T21:47:31.054Z,50.33
2023-09-15T21:50:11.073Z,50.25
2023-09-15T21:52:40.142Z,50.42
2023-09-15T21:55:09.249Z,50.48
2023-09-15T21:57:45.123Z,50.54
2023-09-15T22:00:26.875Z,50.41
2023-09-15T22:02:59.536Z,50.53
2023-09-15T22:05:28.674Z,50.74
2023-09-15T22:08:02.091Z,50.71
2023-09-15T22:10:36.185Z,50.89
2023-09-15T22:13:06.880Z,50.70
2023-09-15T22:15:38.039Z,50.59
2023-09-15T22:18:07.306Z,50.70
2023-09-15T22:20:37.974Z,50.74
2023-09-15T22:23:12.735Z,51.99
2023-09-15T22:25:53.123Z,50.76
2023-09-15T22:28:29.064Z,50.43
2023-09-15T22:31:11.959Z,50.25
2023-09-15T22:33:40.352Z,50.87
2023-09-15T22:36:17.569Z,50.14
2023-09-15T22:38:45.892Z,50.79
2023-09-15T22:41:18.435Z,50.29
2023-09-15T22:43:48.490Z,50.65
2023-09-15T22:46:19.837Z,51.33
2023-09-15T22:48:51.970Z,51.15
2023-09-15T22:51:23.774Z,51.23
2023-09-15T22:53:52.112Z,50.75
2023-09-15T22:56:23.550Z,51.19
2023-09-15T23:01:21.322Z,50.72
2023-09-15T23:03:49.749Z,50.63
2023-09-15T23:06:18.158Z,50.59
2023-09-15T23:08:54.869Z,50.66
2023-09-15T23:11:23.258Z,50.76
2023-09-15T23:13:52.949Z,50.95
2023-09-15T23:16:24.612Z,50.96
2023-09-15T23:18:55.974Z,51.69
2023-09-15T23:21:24.328Z,51.47
2023-09-15T23:23:52.617Z,51.08
2023-09-15T23:26:27.195Z,51.28
2023-09-15T23:28:57.059Z,50.94
2023-09-15T23:31:25.511Z,51.00
2023-09-15T23:33:54.505Z,51.15
2023-09-15T23:36:31.988Z,51.00
2023-09-15T23:39:00.492Z,51.14
2023-09-15T23:41:34.938Z,50.82
2023-09-15T23:44:04.685Z,51.01
2023-09-15T23:46:33.448Z,50.88
2023-09-15T23:49:05.509Z,51.04
2023-09-15T23:51:34.193Z,51.03
2023-09-15T23:54:08.594Z,50.93
2023-09-15T23:56:39.984Z,51.01
2023-09-15T23:59:09.691Z,50.93
